South Fork, PA

1:12 AM EST on December 06, 2016 (GMT -0500)
Jackson Twp - Swigle Mountain Road | | Change Station
Active Advisory: Winter Weather Advisory

Elev 2277 ft 40.40 °N, 78.80 °W | Updated 2 seconds ago

Clear
Clear
29.8 °F
Feels Like 21 °F
N
9.2
Wind Variable Wind from East
Gusts 9.2 mph

Today
High -- | Low -- °F
--% Chance of Precip.
Yesterday
High -- | Low -- °F
Precip. -- in
Pressure 30.09 in
Visibility 10.0 miles
Clouds Clear
Windchill 21 °F
Dew Point 28 °F
Humidity 92%
Rainfall 0.00 in
Snow Depth Not available.
7:24 AM 4:48 PM
Waxing Crescent, 38% visible
METAR KJST 060554Z AUTO 08005KT 10SM CLR M01/M03 A3002 RMK AO2 SLP187 T10061033 10011 21011 58006 TSNO
Pressure 30.09 in
Visibility 10.0 miles
Clouds Clear
Windchill 21 °F
Dew Point 28 °F
Humidity 92%
Rainfall 0.00 in
Snow Depth Not available.
7:24 AM 4:48 PM
Waxing Crescent, 38% visible
METAR KJST 060554Z AUTO 08005KT 10SM CLR M01/M03 A3002 RMK AO2 SLP187 T10061033 10011 21011 58006 TSNO

10-Day Weather Forecast

Almanac

Astronomy

Dec. 06, 2016 Rise Set
Actual Time
Civil Twilight
Nautical Twilight
Astronomical Twilight
Moon
Length of Visible Light
Length of Day
Tomorrow will be .
, % of the Moon is Illuminated

Today's Extremes

State Highs State Lows

Community

WunderPhotos

Upload Photos

1,955,932 photos uploaded!

WunderBlog® & News

Nearby

Air Quality

  Air Quality AQ Index Pollutant
Not available.

Snow Depth

Station Depth Elevation

Earthquake Activity

City Distance Mag. Time & Date
Minimum magnitude displayed is 2.5.

Coastal Water Temperatures

Place Temperature

Stations

Nearby Weather Stations

Station Location Temp. Windchill Dew Point Humidity Wind Precip. Elev Updated Type
                   

Watches & Warnings

Winter Weather Advisory
Issued: 2:12 PM EST Dec. 5, 2016 – National Weather Service

... Winter Weather Advisory in effect from 6 am Tuesday to
midnight EST Tuesday night...

The National Weather Service in State College has issued a Winter
Weather Advisory for mixed precipitation including sleet and
freezing rain... which is in effect from 6 am Tuesday to midnight
EST Tuesday night.

* Locations... Cambria and Somerset counties

* hazard types... freezing rain, sleet and snow.

* Accumulations... snow accumulation of up to 1 inch... along with
less than a tenth of inch.

* Timing... freezing rain or mixed precipitation will move into the
area during the mid morning hours and continue throughout the
day.

* Impacts... ice and snow accumulations may create slippery Road
conditions and produce scattered power outages.

* Winds... southeast 5 to 15 mph with gusts up to 30 mph.

* Temperatures... in the lower 30s.

Precautionary/preparedness actions...

The Pennsylvania Department of Transportation reminds motorists
to adjust speeds based on driving conditions and to take it slow
in snow and ice.



Ceru/Lambert